NCAR-RAP Real-Time Weather Data

Output produced by METARs form (24 July 2017  08:52 UTC)
found at http://weather.rap.ucar.edu/surface/
 
Conditions at: KVDF observed 24 July 2017  08:35 UTC
Temperature: 25.0°C (77°F)
Dewpoint: 23.0°C (73°F) [RH = 89%]
Pressure (altimeter): 30.01 inches Hg (1016.3 mb)
Winds: calm
Visibility: 5 miles (8 km)
Ceiling: at least 12,000 feet AGL
Clouds: sky clear below 12,000 feet AGL
Present Weather: BR  (mist)
KVDF 240835Z AUTO 00000KT 5SM BR CLR 25/23 A3001 RMK AO2

Conditions at: KVDF observed 24 July 2017  08:15 UTC
Temperature: 25.0°C (77°F)
Dewpoint: 23.0°C (73°F) [RH = 89%]
Pressure (altimeter): 30.01 inches Hg (1016.3 mb)
Winds: calm
Visibility: 2.00 miles (3.22 km)
Ceiling: at least 12,000 feet AGL
Clouds: sky clear below 12,000 feet AGL
Present Weather: BR  (mist)
KVDF 240815Z AUTO 00000KT 2SM BR CLR 25/23 A3001 RMK AO2

Conditions at: KVDF observed 24 July 2017  07:55 UTC
Temperature: 25.0°C (77°F)
Dewpoint: 23.0°C (73°F) [RH = 89%]
Pressure (altimeter): 30.02 inches Hg (1016.7 mb)
Winds: calm
Visibility: 4 miles (6 km)
Ceiling: at least 12,000 feet AGL
Clouds: scattered clouds at 2300 feet AGL
Present Weather: BR  (mist)
KVDF 240755Z AUTO 00000KT 4SM BR SCT023 25/23 A3002 RMK AO2

Conditions at: KVDF observed 24 July 2017  07:35 UTC
Temperature: 25.0°C (77°F)
Dewpoint: 23.0°C (73°F) [RH = 89%]
Pressure (altimeter): 30.03 inches Hg (1017.0 mb)
Winds: calm
Visibility: 4 miles (6 km)
Ceiling: at least 12,000 feet AGL
Clouds: sky clear below 12,000 feet AGL
Present Weather: BR  (mist)
KVDF 240735Z AUTO 00000KT 4SM BR CLR 25/23 A3003 RMK AO2

Conditions at: KVDF observed 24 July 2017  07:15 UTC
Temperature: 25.0°C (77°F)
Dewpoint: 23.0°C (73°F) [RH = 89%]
Pressure (altimeter): 30.04 inches Hg (1017.4 mb)
Winds: calm
Visibility: 4 miles (6 km)
Ceiling: at least 12,000 feet AGL
Clouds: sky clear below 12,000 feet AGL
Present Weather: BR  (mist)
KVDF 240715Z AUTO 00000KT 4SM BR CLR 25/23 A3004 RMK AO2

Conditions at: KVDF observed 24 July 2017  06:55 UTC
Temperature: 25.0°C (77°F)
Dewpoint: 23.0°C (73°F) [RH = 89%]
Pressure (altimeter): 30.03 inches Hg (1017.0 mb)
Winds: calm
Visibility: 4 miles (6 km)
Ceiling: at least 12,000 feet AGL
Clouds: sky clear below 12,000 feet AGL
Present Weather: BR  (mist)
KVDF 240655Z AUTO 00000KT 4SM BR CLR 25/23 A3003 RMK AO2

Conditions at: KVDF observed 24 July 2017  06:35 UTC
Temperature: 25.0°C (77°F)
Dewpoint: 23.0°C (73°F) [RH = 89%]
Pressure (altimeter): 30.04 inches Hg (1017.4 mb)
Winds: calm
Visibility: 2.50 miles (4.02 km)
Ceiling: at least 12,000 feet AGL
Clouds: sky clear below 12,000 feet AGL
Present Weather: BR  (mist)
KVDF 240635Z AUTO 00000KT 2 1/2SM BR CLR 25/23 A3004 RMK AO2

Conditions at: KVDF observed 24 July 2017  06:15 UTC
Temperature: 25.0°C (77°F)
Dewpoint: 23.0°C (73°F) [RH = 89%]
Pressure (altimeter): 30.03 inches Hg (1017.0 mb)
Winds: calm
Visibility: 2.50 miles (4.02 km)
Ceiling: at least 12,000 feet AGL
Clouds: sky clear below 12,000 feet AGL
Present Weather: BR  (mist)
KVDF 240615Z AUTO 00000KT 2 1/2SM BR CLR 25/23 A3003 RMK AO2

Conditions at: KVDF observed 24 July 2017  05:55 UTC
Temperature: 25.0°C (77°F)
Dewpoint: 23.0°C (73°F) [RH = 89%]
Pressure (altimeter): 30.04 inches Hg (1017.4 mb)
Winds: calm
Visibility: 7 miles (11 km)
Ceiling: at least 12,000 feet AGL
Clouds: sky clear below 12,000 feet AGL
Present Weather: automated observation with no human augmentation;
there may or may not be significant weather present at this time
KVDF 240555Z AUTO 00000KT 7SM CLR 25/23 A3004 RMK AO2

Conditions at: KVDF observed 24 July 2017  05:35 UTC
Temperature: 26.0°C (79°F)
Dewpoint: 24.0°C (75°F) [RH = 89%]
Pressure (altimeter): 30.04 inches Hg (1017.4 mb)
Winds: calm
Visibility: 10 or more miles (16+ km)
Ceiling: at least 12,000 feet AGL
Clouds: sky clear below 12,000 feet AGL
Present Weather: automated observation with no human augmentation;
there may or may not be significant weather present at this time
KVDF 240535Z AUTO 00000KT 10SM CLR 26/24 A3004 RMK AO2

Conditions at: KVDF observed 24 July 2017  05:15 UTC
Temperature: 26.0°C (79°F)
Dewpoint: 24.0°C (75°F) [RH = 89%]
Pressure (altimeter): 30.05 inches Hg (1017.7 mb)
Winds: calm
Visibility: 7 miles (11 km)
Ceiling: at least 12,000 feet AGL
Clouds: sky clear below 12,000 feet AGL
Present Weather: automated observation with no human augmentation;
there may or may not be significant weather present at this time
KVDF 240515Z AUTO 00000KT 7SM CLR 26/24 A3005 RMK AO2

Conditions at: KVDF observed 24 July 2017  04:55 UTC
Temperature: 26.0°C (79°F)
Dewpoint: 24.0°C (75°F) [RH = 89%]
Pressure (altimeter): 30.06 inches Hg (1018.0 mb)
Winds: calm
Visibility: 7 miles (11 km)
Ceiling: at least 12,000 feet AGL
Clouds: sky clear below 12,000 feet AGL
Present Weather: automated observation with no human augmentation;
there may or may not be significant weather present at this time
KVDF 240455Z AUTO 00000KT 7SM CLR 26/24 A3006 RMK AO2

Conditions at: KVDF observed 24 July 2017  04:35 UTC
Temperature: 26.0°C (79°F)
Dewpoint: 24.0°C (75°F) [RH = 89%]
Pressure (altimeter): 30.06 inches Hg (1018.0 mb)
Winds: calm
Visibility: 7 miles (11 km)
Ceiling: at least 12,000 feet AGL
Clouds: sky clear below 12,000 feet AGL
Present Weather: automated observation with no human augmentation;
there may or may not be significant weather present at this time
KVDF 240435Z AUTO 00000KT 7SM CLR 26/24 A3006 RMK AO2

Conditions at: KVDF observed 24 July 2017  04:15 UTC
Temperature: 25.0°C (77°F)
Dewpoint: 23.0°C (73°F) [RH = 89%]
Pressure (altimeter): 30.06 inches Hg (1018.0 mb)
Winds: calm
Visibility: 5 miles (8 km)
Ceiling: at least 12,000 feet AGL
Clouds: sky clear below 12,000 feet AGL
Present Weather: BR  (mist)
KVDF 240415Z AUTO 00000KT 5SM BR CLR 25/23 A3006 RMK AO2

Conditions at: KVDF observed 24 July 2017  03:55 UTC
Temperature: 25.0°C (77°F)
Dewpoint: 23.0°C (73°F) [RH = 89%]
Pressure (altimeter): 30.06 inches Hg (1018.0 mb)
Winds: calm
Visibility: 5 miles (8 km)
Ceiling: at least 12,000 feet AGL
Clouds: sky clear below 12,000 feet AGL
Present Weather: BR  (mist)
KVDF 240355Z AUTO 00000KT 5SM BR CLR 25/23 A3006 RMK AO2

Conditions at: KVDF observed 24 July 2017  03:35 UTC
Temperature: 25.0°C (77°F)
Dewpoint: 23.0°C (73°F) [RH = 89%]
Pressure (altimeter): 30.05 inches Hg (1017.7 mb)
Winds: calm
Visibility: 5 miles (8 km)
Ceiling: at least 12,000 feet AGL
Clouds: sky clear below 12,000 feet AGL
Present Weather: BR  (mist)
KVDF 240335Z AUTO 00000KT 5SM BR CLR 25/23 A3005 RMK AO2

Conditions at: KVDF observed 24 July 2017  03:15 UTC
Temperature: 25.0°C (77°F)
Dewpoint: 23.0°C (73°F) [RH = 89%]
Pressure (altimeter): 30.05 inches Hg (1017.7 mb)
Winds: calm
Visibility: 4 miles (6 km)
Ceiling: at least 12,000 feet AGL
Clouds: sky clear below 12,000 feet AGL
Present Weather: BR  (mist)
KVDF 240315Z AUTO 00000KT 4SM BR CLR 25/23 A3005 RMK AO2

Conditions at: KVDF observed 24 July 2017  02:55 UTC
Temperature: 25.0°C (77°F)
Dewpoint: 23.0°C (73°F) [RH = 89%]
Pressure (altimeter): 30.04 inches Hg (1017.4 mb)
Winds: calm
Visibility: 4 miles (6 km)
Ceiling: at least 12,000 feet AGL
Clouds: sky clear below 12,000 feet AGL
Present Weather: BR  (mist)
KVDF 240255Z AUTO 00000KT 4SM BR CLR 25/23 A3004 RMK AO2

Conditions at: KVDF observed 24 July 2017  02:35 UTC
Temperature: 25.0°C (77°F)
Dewpoint: 23.0°C (73°F) [RH = 89%]
Pressure (altimeter): 30.03 inches Hg (1017.0 mb)
Winds: calm
Visibility: 7 miles (11 km)
Ceiling: at least 12,000 feet AGL
Clouds: sky clear below 12,000 feet AGL
Present Weather: automated observation with no human augmentation;
there may or may not be significant weather present at this time
KVDF 240235Z AUTO 00000KT 7SM CLR 25/23 A3003 RMK AO2

Conditions at: KVDF observed 24 July 2017  02:15 UTC
Temperature: 25.0°C (77°F)
Dewpoint: 23.0°C (73°F) [RH = 89%]
Pressure (altimeter): 30.02 inches Hg (1016.7 mb)
Winds: calm
Visibility: 7 miles (11 km)
Ceiling: at least 12,000 feet AGL
Clouds: sky clear below 12,000 feet AGL
Present Weather: automated observation with no human augmentation;
there may or may not be significant weather present at this time
KVDF 240215Z AUTO 00000KT 7SM CLR 25/23 A3002 RMK AO2

Conditions at: KVDF observed 24 July 2017  01:55 UTC
Temperature: 26.0°C (79°F)
Dewpoint: 24.0°C (75°F) [RH = 89%]
Pressure (altimeter): 30.01 inches Hg (1016.3 mb)
Winds: calm
Visibility: 10 or more miles (16+ km)
Ceiling: at least 12,000 feet AGL
Clouds: sky clear below 12,000 feet AGL
Present Weather: automated observation with no human augmentation;
there may or may not be significant weather present at this time
KVDF 240155Z AUTO 00000KT 10SM CLR 26/24 A3001 RMK AO2

Conditions at: KVDF observed 24 July 2017  01:35 UTC
Temperature: 26.0°C (79°F)
Dewpoint: 24.0°C (75°F) [RH = 89%]
Pressure (altimeter): 30.01 inches Hg (1016.3 mb)
Winds: calm
Visibility: 7 miles (11 km)
Ceiling: at least 12,000 feet AGL
Clouds: sky clear below 12,000 feet AGL
Present Weather: automated observation with no human augmentation;
there may or may not be significant weather present at this time
KVDF 240135Z AUTO 00000KT 7SM CLR 26/24 A3001 RMK AO2

Conditions at: KVDF observed 24 July 2017  01:15 UTC
Temperature: 26.0°C (79°F)
Dewpoint: 23.0°C (73°F) [RH = 84%]
Pressure (altimeter): 30.00 inches Hg (1016.0 mb)
Winds: calm
Visibility: 7 miles (11 km)
Ceiling: at least 12,000 feet AGL
Clouds: sky clear below 12,000 feet AGL
Present Weather: automated observation with no human augmentation;
there may or may not be significant weather present at this time
KVDF 240115Z AUTO 00000KT 7SM CLR 26/23 A3000 RMK AO2

Conditions at: KVDF observed 24 July 2017  00:55 UTC
Temperature: 26.0°C (79°F)
Dewpoint: 23.0°C (73°F) [RH = 84%]
Pressure (altimeter): 29.99 inches Hg (1015.7 mb)
Winds: calm
Visibility: 10 or more miles (16+ km)
Ceiling: at least 12,000 feet AGL
Clouds: sky clear below 12,000 feet AGL
Present Weather: automated observation with no human augmentation;
there may or may not be significant weather present at this time
KVDF 240055Z AUTO 00000KT 10SM CLR 26/23 A2999 RMK AO2

Conditions at: KVDF observed 24 July 2017  00:35 UTC
Temperature: 27.0°C (81°F)
Dewpoint: 24.0°C (75°F) [RH = 84%]
Pressure (altimeter): 30.00 inches Hg (1016.0 mb)
Winds: calm
Visibility: 10 or more miles (16+ km)
Ceiling: at least 12,000 feet AGL
Clouds: sky clear below 12,000 feet AGL
Present Weather: automated observation with no human augmentation;
there may or may not be significant weather present at this time
KVDF 240035Z AUTO 00000KT 10SM CLR 27/24 A3000 RMK AO2

Conditions at: KVDF observed 24 July 2017  00:15 UTC
Temperature: 27.0°C (81°F)
Dewpoint: 25.0°C (77°F) [RH = 89%]
Pressure (altimeter): 29.99 inches Hg (1015.7 mb)
Winds: calm
Visibility: 10 or more miles (16+ km)
Ceiling: at least 12,000 feet AGL
Clouds: sky clear below 12,000 feet AGL
Present Weather: automated observation with no human augmentation;
there may or may not be significant weather present at this time
KVDF 240015Z AUTO 00000KT 10SM CLR 27/25 A2999 RMK AO2

Conditions at: KVDF observed 23 July 2017  23:55 UTC
Temperature: 27.0°C (81°F)
Dewpoint: 25.0°C (77°F) [RH = 89%]
Pressure (altimeter): 29.99 inches Hg (1015.7 mb)
Winds: from the S (180 degrees) at 5 MPH (4 knots; 2.1 m/s)
Visibility: 10 or more miles (16+ km)
Ceiling: at least 12,000 feet AGL
Clouds: sky clear below 12,000 feet AGL
Present Weather: automated observation with no human augmentation;
there may or may not be significant weather present at this time
KVDF 232355Z AUTO 18004KT 10SM CLR 27/25 A2999 RMK AO2

Conditions at: KVDF observed 23 July 2017  23:35 UTC
Temperature: 27.0°C (81°F)
Dewpoint: 24.0°C (75°F) [RH = 84%]
Pressure (altimeter): 29.98 inches Hg (1015.3 mb)
Winds: calm
Visibility: 10 or more miles (16+ km)
Ceiling: at least 12,000 feet AGL
Clouds: sky clear below 12,000 feet AGL
Present Weather: automated observation with no human augmentation;
there may or may not be significant weather present at this time
KVDF 232335Z AUTO 00000KT 10SM CLR 27/24 A2998 RMK AO2

Conditions at: KVDF observed 23 July 2017  23:15 UTC
Temperature: 27.0°C (81°F)
Dewpoint: 23.0°C (73°F) [RH = 79%]
Pressure (altimeter): 29.99 inches Hg (1015.7 mb)
Winds: calm
Visibility: 10 or more miles (16+ km)
Ceiling: at least 12,000 feet AGL
Clouds: sky clear below 12,000 feet AGL
Present Weather: automated observation with no human augmentation;
there may or may not be significant weather present at this time
KVDF 232315Z AUTO 00000KT 10SM CLR 27/23 A2999 RMK AO2

Conditions at: KVDF observed 23 July 2017  22:55 UTC
Temperature: 27.0°C (81°F)
Dewpoint: 23.0°C (73°F) [RH = 79%]
Pressure (altimeter): 30.00 inches Hg (1016.0 mb)
Winds: from the SSE (160 degrees) at 3 MPH (3 knots; 1.6 m/s)
Visibility: 10 or more miles (16+ km)
Ceiling: at least 12,000 feet AGL
Clouds: sky clear below 12,000 feet AGL
Present Weather: automated observation with no human augmentation;
there may or may not be significant weather present at this time
KVDF 232255Z AUTO 16003KT 10SM CLR 27/23 A3000 RMK AO2

Conditions at: KVDF observed 23 July 2017  22:35 UTC
Temperature: 27.0°C (81°F)
Dewpoint: 24.0°C (75°F) [RH = 84%]
Pressure (altimeter): 30.01 inches Hg (1016.3 mb)
Winds: from the S (170 degrees) at 3 MPH (3 knots; 1.6 m/s)
Visibility: 10 or more miles (16+ km)
Ceiling: at least 12,000 feet AGL
Clouds: sky clear below 12,000 feet AGL
Present Weather: automated observation with no human augmentation;
there may or may not be significant weather present at this time
KVDF 232235Z AUTO 17003KT 10SM CLR 27/24 A3001 RMK AO2

Conditions at: KVDF observed 23 July 2017  22:15 UTC
Temperature: 27.0°C (81°F)
Dewpoint: 23.0°C (73°F) [RH = 79%]
Pressure (altimeter): 30.02 inches Hg (1016.7 mb)
Winds: calm
Visibility: 10 or more miles (16+ km)
Ceiling: at least 12,000 feet AGL
Clouds: sky clear below 12,000 feet AGL
Present Weather: automated observation with no human augmentation;
there may or may not be significant weather present at this time
KVDF 232215Z AUTO 00000KT 10SM CLR 27/23 A3002 RMK AO2

Conditions at: KVDF observed 23 July 2017  21:55 UTC
Temperature: 28.0°C (82°F)
Dewpoint: 23.0°C (73°F) [RH = 74%]
Pressure (altimeter): 30.02 inches Hg (1016.7 mb)
Winds: calm
Visibility: 10 or more miles (16+ km)
Ceiling: at least 12,000 feet AGL
Clouds: sky clear below 12,000 feet AGL
Present Weather: automated observation with no human augmentation;
there may or may not be significant weather present at this time
KVDF 232155Z AUTO 00000KT 10SM CLR 28/23 A3002 RMK AO2

Conditions at: KVDF observed 23 July 2017  21:35 UTC
Temperature: 27.0°C (81°F)
Dewpoint: 23.0°C (73°F) [RH = 79%]
Pressure (altimeter): 30.03 inches Hg (1017.0 mb)
Winds: calm
Visibility: 10 or more miles (16+ km)
Ceiling: at least 12,000 feet AGL
Clouds: sky clear below 12,000 feet AGL
Present Weather: automated observation with no human augmentation;
there may or may not be significant weather present at this time
KVDF 232135Z AUTO 00000KT 10SM CLR 27/23 A3003 RMK AO2

Conditions at: KVDF observed 23 July 2017  21:15 UTC
Temperature: 27.0°C (81°F)
Dewpoint: 23.0°C (73°F) [RH = 79%]
Pressure (altimeter): 30.04 inches Hg (1017.4 mb)
Winds: calm
Visibility: 10 or more miles (16+ km)
Ceiling: at least 12,000 feet AGL
Clouds: sky clear below 12,000 feet AGL
Present Weather: automated observation with no human augmentation;
there may or may not be significant weather present at this time
KVDF 232115Z AUTO 00000KT 10SM CLR 27/23 A3004 RMK AO2

Conditions at: KVDF observed 23 July 2017  20:55 UTC
Temperature: 27.0°C (81°F)
Dewpoint: 23.0°C (73°F) [RH = 79%]
Pressure (altimeter): 30.04 inches Hg (1017.4 mb)
Winds: calm
Visibility: 10 or more miles (16+ km)
Ceiling: at least 12,000 feet AGL
Clouds: sky clear below 12,000 feet AGL
Present Weather: automated observation with no human augmentation;
there may or may not be significant weather present at this time
KVDF 232055Z AUTO 00000KT 10SM CLR 27/23 A3004 RMK AO2

Conditions at: KVDF observed 23 July 2017  20:35 UTC
Temperature: 26.0°C (79°F)
Dewpoint: 23.0°C (73°F) [RH = 84%]
Pressure (altimeter): 30.04 inches Hg (1017.4 mb)
Winds: calm
Visibility: 10 or more miles (16+ km)
Ceiling: at least 12,000 feet AGL
Clouds: scattered clouds at 700 feet AGL
Present Weather: automated observation with no human augmentation;
there may or may not be significant weather present at this time
KVDF 232035Z AUTO 00000KT 10SM SCT007 26/23 A3004 RMK AO2

Conditions at: KVDF observed 23 July 2017  20:15 UTC
Temperature: 26.0°C (79°F)
Dewpoint: 23.0°C (73°F) [RH = 84%]
Pressure (altimeter): 30.05 inches Hg (1017.7 mb)
Winds: calm
Visibility: 10 or more miles (16+ km)
Ceiling: at least 12,000 feet AGL
Clouds: scattered clouds at 3600 feet AGL
scattered clouds at 4400 feet AGL
Present Weather: -DZ  (light drizzle)
KVDF 232015Z AUTO 00000KT 10SM -DZ SCT036 SCT044 26/23 A3005 RMK AO2

Conditions at: KVDF observed 23 July 2017  19:55 UTC
Temperature: 26.0°C (79°F)
Dewpoint: 23.0°C (73°F) [RH = 84%]
Pressure (altimeter): 30.06 inches Hg (1018.0 mb)
Winds: calm
Visibility: 10 or more miles (16+ km)
Ceiling: 7500 feet AGL
Clouds: scattered clouds at 3600 feet AGL
broken clouds at 7500 feet AGL
overcast cloud deck at 9000 feet AGL
Present Weather: -RA  (light rain)
KVDF 231955Z AUTO 00000KT 10SM -RA SCT036 BKN075 OVC090 26/23 A3006 RMK AO2 P0001

Conditions at: KVDF observed 23 July 2017  19:35 UTC
Temperature: 27.0°C (81°F)
Dewpoint: 24.0°C (75°F) [RH = 84%]
Pressure (altimeter): 30.06 inches Hg (1018.0 mb)
Winds: from the WNW (290 degrees) at 3 MPH (3 knots; 1.6 m/s)
Visibility: 10 or more miles (16+ km)
Ceiling: 7000 feet AGL
Clouds: scattered clouds at 4800 feet AGL
broken clouds at 7000 feet AGL
overcast cloud deck at 9000 feet AGL
Present Weather: -RA  (light rain)
KVDF 231935Z AUTO 29003KT 10SM -RA SCT048 BKN070 OVC090 27/24 A3006 RMK AO2 P0001

Conditions at: KVDF observed 23 July 2017  19:15 UTC
Temperature: 27.0°C (81°F)
Dewpoint: 23.0°C (73°F) [RH = 79%]
Pressure (altimeter): 30.05 inches Hg (1017.7 mb)
Winds: calm
Visibility: 10 or more miles (16+ km)
Ceiling: at least 12,000 feet AGL
Clouds: scattered clouds at 3700 feet AGL
scattered clouds at 6000 feet AGL
scattered clouds at 7500 feet AGL
Present Weather: -RA  (light rain)
KVDF 231915Z AUTO 00000KT 10SM -RA SCT037 SCT060 SCT075 27/23 A3005 RMK AO2

Conditions at: KVDF observed 23 July 2017  18:55 UTC
Temperature: 27.0°C (81°F)
Dewpoint: 23.0°C (73°F) [RH = 79%]
Pressure (altimeter): 30.05 inches Hg (1017.7 mb)
Winds: calm
Visibility: 10 or more miles (16+ km)
Ceiling: at least 12,000 feet AGL
Clouds: sky clear below 12,000 feet AGL
Present Weather: automated observation with no human augmentation;
there may or may not be significant weather present at this time
KVDF 231855Z AUTO 00000KT 10SM CLR 27/23 A3005 RMK AO2

Conditions at: KVDF observed 23 July 2017  18:35 UTC
Temperature: 27.0°C (81°F)
Dewpoint: 23.0°C (73°F) [RH = 79%]
Pressure (altimeter): 30.07 inches Hg (1018.4 mb)
Winds: calm
Visibility: 10 or more miles (16+ km)
Ceiling: at least 12,000 feet AGL
Clouds: sky clear below 12,000 feet AGL
Present Weather: automated observation with no human augmentation;
there may or may not be significant weather present at this time
KVDF 231835Z AUTO 00000KT 10SM CLR 27/23 A3007 RMK AO2

Conditions at: KVDF observed 23 July 2017  18:15 UTC
Temperature: 26.0°C (79°F)
Dewpoint: 23.0°C (73°F) [RH = 84%]
Pressure (altimeter): 30.08 inches Hg (1018.7 mb)
Winds: calm
Visibility: 10 or more miles (16+ km)
Ceiling: at least 12,000 feet AGL
Clouds: sky clear below 12,000 feet AGL
Present Weather: automated observation with no human augmentation;
there may or may not be significant weather present at this time
KVDF 231815Z AUTO 00000KT 10SM CLR 26/23 A3008 RMK AO2

Conditions at: KVDF observed 23 July 2017  17:55 UTC
Temperature: 26.0°C (79°F)
Dewpoint: 23.0°C (73°F) [RH = 84%]
Pressure (altimeter): 30.09 inches Hg (1019.0 mb)
Winds: calm
Visibility: 10 or more miles (16+ km)
Ceiling: at least 12,000 feet AGL
Clouds: sky clear below 12,000 feet AGL
Present Weather: automated observation with no human augmentation;
there may or may not be significant weather present at this time
KVDF 231755Z AUTO 00000KT 10SM CLR 26/23 A3009 RMK AO2

Conditions at: KVDF observed 23 July 2017  17:35 UTC
Temperature: 26.0°C (79°F)
Dewpoint: 23.0°C (73°F) [RH = 84%]
Pressure (altimeter): 30.10 inches Hg (1019.4 mb)
Winds: calm
Visibility: 10 or more miles (16+ km)
Ceiling: at least 12,000 feet AGL
Clouds: scattered clouds at 500 feet AGL
scattered clouds at 12000 feet AGL
Present Weather: -RA  (light rain)
KVDF 231735Z AUTO 00000KT 10SM -RA SCT005 SCT120 26/23 A3010 RMK AO2

Conditions at: KVDF observed 23 July 2017  17:15 UTC
Temperature: 26.0°C (79°F)
Dewpoint: 23.0°C (73°F) [RH = 84%]
Pressure (altimeter): 30.10 inches Hg (1019.4 mb)
Winds: calm
Visibility: 10 or more miles (16+ km)
Ceiling: at least 12,000 feet AGL
Clouds: scattered clouds at 500 feet AGL
Present Weather: automated observation with no human augmentation;
there may or may not be significant weather present at this time
KVDF 231715Z AUTO 00000KT 10SM SCT005 26/23 A3010 RMK AO2

Conditions at: KVDF observed 23 July 2017  16:55 UTC
Temperature: 26.0°C (79°F)
Dewpoint: 23.0°C (73°F) [RH = 84%]
Pressure (altimeter): 30.09 inches Hg (1019.0 mb)
Winds: calm
Visibility: 10 or more miles (16+ km)
Ceiling: at least 12,000 feet AGL
Clouds: scattered clouds at 500 feet AGL
Present Weather: automated observation with no human augmentation;
there may or may not be significant weather present at this time
KVDF 231655Z AUTO 00000KT 10SM SCT005 26/23 A3009 RMK AO2 P0001

Conditions at: KVDF observed 23 July 2017  16:35 UTC
Temperature: 25.0°C (77°F)
Dewpoint: 23.0°C (73°F) [RH = 89%]
Pressure (altimeter): 30.09 inches Hg (1019.0 mb)
Winds: calm
Visibility: 10 or more miles (16+ km)
Ceiling: 3600 feet AGL
Clouds: scattered clouds at 500 feet AGL
broken clouds at 3600 feet AGL
broken clouds at 5500 feet AGL
Present Weather: automated observation with no human augmentation;
there may or may not be significant weather present at this time
KVDF 231635Z AUTO 00000KT 10SM SCT005 BKN036 BKN055 25/23 A3009 RMK AO2 P0001

Conditions at: KVDF observed 23 July 2017  16:15 UTC
Temperature: 25.0°C (77°F)
Dewpoint: 23.0°C (73°F) [RH = 89%]
Pressure (altimeter): 30.10 inches Hg (1019.4 mb)
Winds: calm
Visibility: 7 miles (11 km)
Ceiling: 9000 feet AGL
Clouds: scattered clouds at 3100 feet AGL
scattered clouds at 5000 feet AGL
overcast cloud deck at 9000 feet AGL
Present Weather: -RA  (light rain)
KVDF 231615Z AUTO 00000KT 7SM -RA SCT031 SCT050 OVC090 25/23 A3010 RMK AO2 P0001

Conditions at: KVDF observed 23 July 2017  15:55 UTC
Temperature: 25.0°C (77°F)
Dewpoint: 23.0°C (73°F) [RH = 89%]
Pressure (altimeter): 30.10 inches Hg (1019.4 mb)
Winds: calm
Visibility: 7 miles (11 km)
Ceiling: 9000 feet AGL
Clouds: overcast cloud deck at 9000 feet AGL
Present Weather: -RA  (light rain)
KVDF 231555Z AUTO 00000KT 7SM -RA OVC090 25/23 A3010 RMK AO2 P0007

Conditions at: KVDF observed 23 July 2017  15:35 UTC
Temperature: 25.0°C (77°F)
Dewpoint: 22.0°C (72°F) [RH = 83%]
Pressure (altimeter): 30.10 inches Hg (1019.4 mb)
Winds: calm
Visibility: 10 or more miles (16+ km)
Ceiling: 9000 feet AGL
Clouds: scattered clouds at 5500 feet AGL
scattered clouds at 7500 feet AGL
overcast cloud deck at 9000 feet AGL
Present Weather: -RA  (light rain)
KVDF 231535Z AUTO 00000KT 10SM -RA SCT055 SCT075 OVC090 25/22 A3010 RMK AO2 P0006

Conditions at: KVDF observed 23 July 2017  15:15 UTC
Temperature: 24.0°C (75°F)
Dewpoint: 22.0°C (72°F) [RH = 89%]
Pressure (altimeter): 30.10 inches Hg (1019.4 mb)
Winds: calm
Visibility: 4 miles (6 km)
Ceiling: 10000 feet AGL
Clouds: overcast cloud deck at 10000 feet AGL
Present Weather: RA  (rain)
KVDF 231515Z AUTO 00000KT 4SM RA OVC100 24/22 A3010 RMK AO2 P0004

Conditions at: KVDF observed 23 July 2017  14:55 UTC
Temperature: 24.0°C (75°F)
Dewpoint: 22.0°C (72°F) [RH = 89%]
Pressure (altimeter): 30.10 inches Hg (1019.4 mb)
Winds: calm
Visibility: 4 miles (6 km)
Ceiling: 10000 feet AGL
Clouds: scattered clouds at 7000 feet AGL
overcast cloud deck at 10000 feet AGL
Present Weather: RA  (rain)
KVDF 231455Z AUTO 00000KT 4SM RA SCT070 OVC100 24/22 A3010 RMK AO2 P0010

Conditions at: KVDF observed 23 July 2017  14:35 UTC
Temperature: 24.0°C (75°F)
Dewpoint: 22.0°C (72°F) [RH = 89%]
Pressure (altimeter): 30.10 inches Hg (1019.4 mb)
Winds: calm
Visibility: 10 or more miles (16+ km)
Ceiling: 7000 feet AGL
Clouds: scattered clouds at 2400 feet AGL
broken clouds at 7000 feet AGL
overcast cloud deck at 9500 feet AGL
Present Weather: RA  (rain)
KVDF 231435Z AUTO 00000KT 10SM RA SCT024 BKN070 OVC095 24/22 A3010 RMK AO2 P0005

Conditions at: KVDF observed 23 July 2017  14:15 UTC
Temperature: 25.0°C (77°F)
Dewpoint: 22.0°C (72°F) [RH = 83%]
Pressure (altimeter): 30.10 inches Hg (1019.4 mb)
Winds: from the WNW (300 degrees) at 9 MPH (8 knots; 4.2 m/s)
Visibility: 7 miles (11 km)
Ceiling: 2400 feet AGL
Clouds: scattered clouds at 900 feet AGL
scattered clouds at 1400 feet AGL
overcast cloud deck at 2400 feet AGL
Present Weather: RA  (rain)
KVDF 231415Z AUTO 30008KT 7SM RA SCT009 SCT014 OVC024 25/22 A3010 RMK AO2 P0003

Conditions at: KVDF observed 23 July 2017  13:55 UTC
Temperature: 26.0°C (79°F)
Dewpoint: 24.0°C (75°F) [RH = 89%]
Pressure (altimeter): 30.09 inches Hg (1019.0 mb)
Winds: calm
Visibility: 7 miles (11 km)
Ceiling: 6000 feet AGL
Clouds: scattered clouds at 1500 feet AGL
broken clouds at 6000 feet AGL
overcast cloud deck at 7000 feet AGL
Present Weather: RA  (rain)
KVDF 231355Z AUTO 00000KT 7SM RA SCT015 BKN060 OVC070 26/24 A3009 RMK AO2 P0001

Conditions at: KVDF observed 23 July 2017  13:35 UTC
Temperature: 26.0°C (79°F)
Dewpoint: 24.0°C (75°F) [RH = 89%]
Pressure (altimeter): 30.08 inches Hg (1018.7 mb)
Winds: calm
Visibility: 10 or more miles (16+ km)
Ceiling: 9500 feet AGL
Clouds: scattered clouds at 6500 feet AGL
overcast cloud deck at 9500 feet AGL
Present Weather: -DZ  (light drizzle)
KVDF 231335Z AUTO 00000KT 10SM -DZ SCT065 OVC095 26/24 A3008 RMK AO2

Conditions at: KVDF observed 23 July 2017  13:15 UTC
Temperature: 27.0°C (81°F)
Dewpoint: 24.0°C (75°F) [RH = 84%]
Pressure (altimeter): 30.07 inches Hg (1018.4 mb)
Winds: calm
Visibility: 10 or more miles (16+ km)
Ceiling: 8500 feet AGL
Clouds: scattered clouds at 2400 feet AGL
scattered clouds at 6000 feet AGL
broken clouds at 8500 feet AGL
Present Weather: -RA  (light rain)
KVDF 231315Z AUTO 00000KT 10SM -RA SCT024 SCT060 BKN085 27/24 A3007 RMK AO2

Conditions at: KVDF observed 23 July 2017  12:55 UTC
Temperature: 27.0°C (81°F)
Dewpoint: 24.0°C (75°F) [RH = 84%]
Pressure (altimeter): 30.08 inches Hg (1018.7 mb)
Winds: calm
Visibility: 10 or more miles (16+ km)
Ceiling: 3000 feet AGL
Clouds: scattered clouds at 2400 feet AGL
broken clouds at 3000 feet AGL
broken clouds at 5000 feet AGL
Present Weather: automated observation with no human augmentation;
there may or may not be significant weather present at this time
KVDF 231255Z AUTO 00000KT 10SM SCT024 BKN030 BKN050 27/24 A3008 RMK AO2

Conditions at: KVDF observed 23 July 2017  12:35 UTC
Temperature: 27.0°C (81°F)
Dewpoint: 23.0°C (73°F) [RH = 79%]
Pressure (altimeter): 30.07 inches Hg (1018.4 mb)
Winds: calm
Visibility: 10 or more miles (16+ km)
Ceiling: 2400 feet AGL
Clouds: broken clouds at 2400 feet AGL
broken clouds at 4300 feet AGL
broken clouds at 7500 feet AGL
Present Weather: automated observation with no human augmentation;
there may or may not be significant weather present at this time
KVDF 231235Z AUTO 00000KT 10SM BKN024 BKN043 BKN075 27/23 A3007 RMK AO2

Conditions at: KVDF observed 23 July 2017  12:15 UTC
Temperature: 27.0°C (81°F)
Dewpoint: 23.0°C (73°F) [RH = 79%]
Pressure (altimeter): 30.07 inches Hg (1018.4 mb)
Winds: calm
Visibility: 10 or more miles (16+ km)
Ceiling: 5500 feet AGL
Clouds: scattered clouds at 2600 feet AGL
scattered clouds at 4300 feet AGL
broken clouds at 5500 feet AGL
Present Weather: RA  (rain)
KVDF 231215Z AUTO 00000KT 10SM RA SCT026 SCT043 BKN055 27/23 A3007 RMK AO2

Conditions at: KVDF observed 23 July 2017  11:55 UTC
Temperature: 26.0°C (79°F)
Dewpoint: 23.0°C (73°F) [RH = 84%]
Pressure (altimeter): 30.05 inches Hg (1017.7 mb)
Winds: calm
Visibility: 10 or more miles (16+ km)
Ceiling: at least 12,000 feet AGL
Clouds: scattered clouds at 3200 feet AGL
Present Weather: automated observation with no human augmentation;
there may or may not be significant weather present at this time
KVDF 231155Z AUTO 00000KT 10SM SCT032 26/23 A3005 RMK AO2

Conditions at: KVDF observed 23 July 2017  11:35 UTC
Temperature: 25.0°C (77°F)
Dewpoint: 23.0°C (73°F) [RH = 89%]
Pressure (altimeter): 30.04 inches Hg (1017.4 mb)
Winds: calm
Visibility: 10 or more miles (16+ km)
Ceiling: at least 12,000 feet AGL
Clouds: scattered clouds at 3200 feet AGL
Present Weather: automated observation with no human augmentation;
there may or may not be significant weather present at this time
KVDF 231135Z AUTO 00000KT 10SM SCT032 25/23 A3004 RMK AO2

Conditions at: KVDF observed 23 July 2017  11:15 UTC
Temperature: 25.0°C (77°F)
Dewpoint: 23.0°C (73°F) [RH = 89%]
Pressure (altimeter): 30.04 inches Hg (1017.4 mb)
Winds: calm
Visibility: 10 or more miles (16+ km)
Ceiling: at least 12,000 feet AGL
Clouds: sky clear below 12,000 feet AGL
Present Weather: automated observation with no human augmentation;
there may or may not be significant weather present at this time
KVDF 231115Z AUTO 00000KT 10SM CLR 25/23 A3004 RMK AO2

Conditions at: KVDF observed 23 July 2017  10:55 UTC
Temperature: 25.0°C (77°F)
Dewpoint: 23.0°C (73°F) [RH = 89%]
Pressure (altimeter): 30.02 inches Hg (1016.7 mb)
Winds: calm
Visibility: 10 or more miles (16+ km)
Ceiling: at least 12,000 feet AGL
Clouds: sky clear below 12,000 feet AGL
Present Weather: automated observation with no human augmentation;
there may or may not be significant weather present at this time
KVDF 231055Z AUTO 00000KT 10SM CLR 25/23 A3002 RMK AO2

Conditions at: KVDF observed 23 July 2017  10:35 UTC
Temperature: 25.0°C (77°F)
Dewpoint: 23.0°C (73°F) [RH = 89%]
Pressure (altimeter): 30.03 inches Hg (1017.0 mb)
Winds: calm
Visibility: 10 or more miles (16+ km)
Ceiling: at least 12,000 feet AGL
Clouds: sky clear below 12,000 feet AGL
Present Weather: automated observation with no human augmentation;
there may or may not be significant weather present at this time
KVDF 231035Z AUTO 00000KT 10SM CLR 25/23 A3003 RMK AO2

Conditions at: KVDF observed 23 July 2017  10:15 UTC
Temperature: 25.0°C (77°F)
Dewpoint: 23.0°C (73°F) [RH = 89%]
Pressure (altimeter): 30.02 inches Hg (1016.7 mb)
Winds: calm
Visibility: 10 or more miles (16+ km)
Ceiling: at least 12,000 feet AGL
Clouds: sky clear below 12,000 feet AGL
Present Weather: automated observation with no human augmentation;
there may or may not be significant weather present at this time
KVDF 231015Z AUTO 00000KT 10SM CLR 25/23 A3002 RMK AO2

Conditions at: KVDF observed 23 July 2017  09:55 UTC
Temperature: 25.0°C (77°F)
Dewpoint: 23.0°C (73°F) [RH = 89%]
Pressure (altimeter): 30.02 inches Hg (1016.7 mb)
Winds: calm
Visibility: 10 or more miles (16+ km)
Ceiling: at least 12,000 feet AGL
Clouds: sky clear below 12,000 feet AGL
Present Weather: automated observation with no human augmentation;
there may or may not be significant weather present at this time
KVDF 230955Z AUTO 00000KT 10SM CLR 25/23 A3002 RMK AO2

Conditions at: KVDF observed 23 July 2017  09:35 UTC
Temperature: 25.0°C (77°F)
Dewpoint: 23.0°C (73°F) [RH = 89%]
Pressure (altimeter): 30.02 inches Hg (1016.7 mb)
Winds: calm
Visibility: 10 or more miles (16+ km)
Ceiling: at least 12,000 feet AGL
Clouds: scattered clouds at 12000 feet AGL
Present Weather: automated observation with no human augmentation;
there may or may not be significant weather present at this time
KVDF 230935Z AUTO 00000KT 10SM SCT120 25/23 A3002 RMK AO2

Conditions at: KVDF observed 23 July 2017  09:15 UTC
Temperature: 25.0°C (77°F)
Dewpoint: 23.0°C (73°F) [RH = 89%]
Pressure (altimeter): 30.02 inches Hg (1016.7 mb)
Winds: from the S (190 degrees) at 3 MPH (3 knots; 1.6 m/s)
Visibility: 10 or more miles (16+ km)
Ceiling: at least 12,000 feet AGL
Clouds: sky clear below 12,000 feet AGL
Present Weather: automated observation with no human augmentation;
there may or may not be significant weather present at this time
KVDF 230915Z AUTO 19003KT 10SM CLR 25/23 A3002 RMK AO2

Conditions at: KVDF observed 23 July 2017  08:55 UTC
Temperature: 25.0°C (77°F)
Dewpoint: 23.0°C (73°F) [RH = 89%]
Pressure (altimeter): 30.02 inches Hg (1016.7 mb)
Winds: calm
Visibility: 10 or more miles (16+ km)
Ceiling: at least 12,000 feet AGL
Clouds: sky clear below 12,000 feet AGL
Present Weather: automated observation with no human augmentation;
there may or may not be significant weather present at this time
KVDF 230855Z AUTO 00000KT 10SM CLR 25/23 A3002 RMK AO2

Conditions at: KVDF observed 23 July 2017  08:35 UTC
Temperature: 25.0°C (77°F)
Dewpoint: 23.0°C (73°F) [RH = 89%]
Pressure (altimeter): 30.02 inches Hg (1016.7 mb)
Winds: calm
Visibility: 10 or more miles (16+ km)
Ceiling: at least 12,000 feet AGL
Clouds: sky clear below 12,000 feet AGL
Present Weather: automated observation with no human augmentation;
there may or may not be significant weather present at this time
KVDF 230835Z AUTO 00000KT 10SM CLR 25/23 A3002 RMK AO2

Conditions at: KVDF observed 23 July 2017  08:15 UTC
Temperature: 25.0°C (77°F)
Dewpoint: 23.0°C (73°F) [RH = 89%]
Pressure (altimeter): 30.02 inches Hg (1016.7 mb)
Winds: calm
Visibility: 10 or more miles (16+ km)
Ceiling: at least 12,000 feet AGL
Clouds: sky clear below 12,000 feet AGL
Present Weather: automated observation with no human augmentation;
there may or may not be significant weather present at this time
KVDF 230815Z AUTO 00000KT 10SM CLR 25/23 A3002 RMK AO2

Conditions at: KVDF observed 23 July 2017  07:55 UTC
Temperature: 25.0°C (77°F)
Dewpoint: 23.0°C (73°F) [RH = 89%]
Pressure (altimeter): 30.03 inches Hg (1017.0 mb)
Winds: calm
Visibility: 10 or more miles (16+ km)
Ceiling: at least 12,000 feet AGL
Clouds: sky clear below 12,000 feet AGL
Present Weather: automated observation with no human augmentation;
there may or may not be significant weather present at this time
KVDF 230755Z AUTO 00000KT 10SM CLR 25/23 A3003 RMK AO2

Conditions at: KVDF observed 23 July 2017  07:35 UTC
Temperature: 25.0°C (77°F)
Dewpoint: 23.0°C (73°F) [RH = 89%]
Pressure (altimeter): 30.04 inches Hg (1017.4 mb)
Winds: calm
Visibility: 10 or more miles (16+ km)
Ceiling: at least 12,000 feet AGL
Clouds: sky clear below 12,000 feet AGL
Present Weather: automated observation with no human augmentation;
there may or may not be significant weather present at this time
KVDF 230735Z AUTO 00000KT 10SM CLR 25/23 A3004 RMK AO2

Conditions at: KVDF observed 23 July 2017  07:15 UTC
Temperature: 25.0°C (77°F)
Dewpoint: 23.0°C (73°F) [RH = 89%]
Pressure (altimeter): 30.04 inches Hg (1017.4 mb)
Winds: from the SE (140 degrees) at 3 MPH (3 knots; 1.6 m/s)
Visibility: 10 or more miles (16+ km)
Ceiling: at least 12,000 feet AGL
Clouds: sky clear below 12,000 feet AGL
Present Weather: automated observation with no human augmentation;
there may or may not be significant weather present at this time
KVDF 230715Z AUTO 14003KT 10SM CLR 25/23 A3004 RMK AO2

Conditions at: KVDF observed 23 July 2017  06:55 UTC
Temperature: 25.0°C (77°F)
Dewpoint: 23.0°C (73°F) [RH = 89%]
Pressure (altimeter): 30.04 inches Hg (1017.4 mb)
Winds: from the SSE (160 degrees) at 3 MPH (3 knots; 1.6 m/s)
Visibility: 10 or more miles (16+ km)
Ceiling: at least 12,000 feet AGL
Clouds: sky clear below 12,000 feet AGL
Present Weather: automated observation with no human augmentation;
there may or may not be significant weather present at this time
KVDF 230655Z AUTO 16003KT 10SM CLR 25/23 A3004 RMK AO2

Conditions at: KVDF observed 23 July 2017  06:35 UTC
Temperature: 26.0°C (79°F)
Dewpoint: 23.0°C (73°F) [RH = 84%]
Pressure (altimeter): 30.05 inches Hg (1017.7 mb)
Winds: from the SSE (150 degrees) at 6 MPH (5 knots; 2.6 m/s)
Visibility: 10 or more miles (16+ km)
Ceiling: at least 12,000 feet AGL
Clouds: sky clear below 12,000 feet AGL
Present Weather: automated observation with no human augmentation;
there may or may not be significant weather present at this time
KVDF 230635Z AUTO 15005KT 10SM CLR 26/23 A3005 RMK AO2

Conditions at: KVDF observed 23 July 2017  06:15 UTC
Temperature: 26.0°C (79°F)
Dewpoint: 24.0°C (75°F) [RH = 89%]
Pressure (altimeter): 30.05 inches Hg (1017.7 mb)
Winds: from the SSE (150 degrees) at 5 MPH (4 knots; 2.1 m/s)
Visibility: 10 or more miles (16+ km)
Ceiling: at least 12,000 feet AGL
Clouds: sky clear below 12,000 feet AGL
Present Weather: automated observation with no human augmentation;
there may or may not be significant weather present at this time
KVDF 230615Z AUTO 15004KT 10SM CLR 26/24 A3005 RMK AO2

Conditions at: KVDF observed 23 July 2017  05:55 UTC
Temperature: 25.0°C (77°F)
Dewpoint: 23.0°C (73°F) [RH = 89%]
Pressure (altimeter): 30.06 inches Hg (1018.0 mb)
Winds: calm
Visibility: 7 miles (11 km)
Ceiling: at least 12,000 feet AGL
Clouds: sky clear below 12,000 feet AGL
Present Weather: automated observation with no human augmentation;
there may or may not be significant weather present at this time
KVDF 230555Z AUTO 00000KT 7SM CLR 25/23 A3006 RMK AO2

Conditions at: KVDF observed 23 July 2017  05:35 UTC
Temperature: 25.0°C (77°F)
Dewpoint: 24.0°C (75°F) [RH = 94%]
Pressure (altimeter): 30.06 inches Hg (1018.0 mb)
Winds: calm
Visibility: 7 miles (11 km)
Ceiling: at least 12,000 feet AGL
Clouds: sky clear below 12,000 feet AGL
Present Weather: automated observation with no human augmentation;
there may or may not be significant weather present at this time
KVDF 230535Z AUTO 00000KT 7SM CLR 25/24 A3006 RMK AO2

Conditions at: KVDF observed 23 July 2017  05:15 UTC
Temperature: 25.0°C (77°F)
Dewpoint: 23.0°C (73°F) [RH = 89%]
Pressure (altimeter): 30.06 inches Hg (1018.0 mb)
Winds: calm
Visibility: 7 miles (11 km)
Ceiling: at least 12,000 feet AGL
Clouds: sky clear below 12,000 feet AGL
Present Weather: automated observation with no human augmentation;
there may or may not be significant weather present at this time
KVDF 230515Z AUTO 00000KT 7SM CLR 25/23 A3006 RMK AO2

Conditions at: KVDF observed 23 July 2017  04:55 UTC
Temperature: 25.0°C (77°F)
Dewpoint: 23.0°C (73°F) [RH = 89%]
Pressure (altimeter): 30.06 inches Hg (1018.0 mb)
Winds: calm
Visibility: 5 miles (8 km)
Ceiling: at least 12,000 feet AGL
Clouds: sky clear below 12,000 feet AGL
Present Weather: BR  (mist)
KVDF 230455Z AUTO 00000KT 5SM BR CLR 25/23 A3006 RMK AO2

Conditions at: KVDF observed 23 July 2017  04:35 UTC
Temperature: 25.0°C (77°F)
Dewpoint: 23.0°C (73°F) [RH = 89%]
Pressure (altimeter): 30.06 inches Hg (1018.0 mb)
Winds: calm
Visibility: 7 miles (11 km)
Ceiling: at least 12,000 feet AGL
Clouds: sky clear below 12,000 feet AGL
Present Weather: automated observation with no human augmentation;
there may or may not be significant weather present at this time
KVDF 230435Z AUTO 00000KT 7SM CLR 25/23 A3006 RMK AO2

Conditions at: KVDF observed 23 July 2017  04:15 UTC
Temperature: 26.0°C (79°F)
Dewpoint: 24.0°C (75°F) [RH = 89%]
Pressure (altimeter): 30.06 inches Hg (1018.0 mb)
Winds: calm
Visibility: 7 miles (11 km)
Ceiling: at least 12,000 feet AGL
Clouds: sky clear below 12,000 feet AGL
Present Weather: automated observation with no human augmentation;
there may or may not be significant weather present at this time
KVDF 230415Z AUTO 00000KT 7SM CLR 26/24 A3006 RMK AO2

Conditions at: KVDF observed 23 July 2017  03:55 UTC
Temperature: 26.0°C (79°F)
Dewpoint: 24.0°C (75°F) [RH = 89%]
Pressure (altimeter): 30.06 inches Hg (1018.0 mb)
Winds: calm
Visibility: 7 miles (11 km)
Ceiling: at least 12,000 feet AGL
Clouds: sky clear below 12,000 feet AGL
Present Weather: automated observation with no human augmentation;
there may or may not be significant weather present at this time
KVDF 230355Z AUTO 00000KT 7SM CLR 26/24 A3006 RMK AO2

Conditions at: KVDF observed 23 July 2017  03:35 UTC
Temperature: 26.0°C (79°F)
Dewpoint: 24.0°C (75°F) [RH = 89%]
Pressure (altimeter): 30.05 inches Hg (1017.7 mb)
Winds: calm
Visibility: 10 or more miles (16+ km)
Ceiling: at least 12,000 feet AGL
Clouds: sky clear below 12,000 feet AGL
Present Weather: automated observation with no human augmentation;
there may or may not be significant weather present at this time
KVDF 230335Z AUTO 00000KT 10SM CLR 26/24 A3005 RMK AO2

Conditions at: KVDF observed 23 July 2017  03:15 UTC
Temperature: 27.0°C (81°F)
Dewpoint: 25.0°C (77°F) [RH = 89%]
Pressure (altimeter): 30.05 inches Hg (1017.7 mb)
Winds: calm
Visibility: 10 or more miles (16+ km)
Ceiling: at least 12,000 feet AGL
Clouds: sky clear below 12,000 feet AGL
Present Weather: automated observation with no human augmentation;
there may or may not be significant weather present at this time
KVDF 230315Z AUTO 00000KT 10SM CLR 27/25 A3005 RMK AO2

Conditions at: KVDF observed 23 July 2017  02:55 UTC
Temperature: 27.0°C (81°F)
Dewpoint: 25.0°C (77°F) [RH = 89%]
Pressure (altimeter): 30.05 inches Hg (1017.7 mb)
Winds: from the S (180 degrees) at 3 MPH (3 knots; 1.6 m/s)
Visibility: 10 or more miles (16+ km)
Ceiling: at least 12,000 feet AGL
Clouds: sky clear below 12,000 feet AGL
Present Weather: automated observation with no human augmentation;
there may or may not be significant weather present at this time
KVDF 230255Z AUTO 18003KT 10SM CLR 27/25 A3005 RMK AO2

Conditions at: KVDF observed 23 July 2017  02:35 UTC
Temperature: 26.0°C (79°F)
Dewpoint: 24.0°C (75°F) [RH = 89%]
Pressure (altimeter): 30.05 inches Hg (1017.7 mb)
Winds: from the SSE (160 degrees) at 3 MPH (3 knots; 1.6 m/s)
Visibility: 10 or more miles (16+ km)
Ceiling: at least 12,000 feet AGL
Clouds: sky clear below 12,000 feet AGL
Present Weather: automated observation with no human augmentation;
there may or may not be significant weather present at this time
KVDF 230235Z AUTO 16003KT 10SM CLR 26/24 A3005 RMK AO2

Conditions at: KVDF observed 23 July 2017  02:15 UTC
Temperature: 27.0°C (81°F)
Dewpoint: 25.0°C (77°F) [RH = 89%]
Pressure (altimeter): 30.05 inches Hg (1017.7 mb)
Winds: from the SE (140 degrees) at 3 MPH (3 knots; 1.6 m/s)
Visibility: 10 or more miles (16+ km)
Ceiling: at least 12,000 feet AGL
Clouds: sky clear below 12,000 feet AGL
Present Weather: automated observation with no human augmentation;
there may or may not be significant weather present at this time
KVDF 230215Z AUTO 14003KT 10SM CLR 27/25 A3005 RMK AO2

Conditions at: KVDF observed 23 July 2017  01:55 UTC
Temperature: 27.0°C (81°F)
Dewpoint: 25.0°C (77°F) [RH = 89%]
Pressure (altimeter): 30.05 inches Hg (1017.7 mb)
Winds: calm
Visibility: 10 or more miles (16+ km)
Ceiling: at least 12,000 feet AGL
Clouds: scattered clouds at 1200 feet AGL
Present Weather: automated observation with no human augmentation;
there may or may not be significant weather present at this time
KVDF 230155Z AUTO 00000KT 10SM SCT012 27/25 A3005 RMK AO2

Conditions at: KVDF observed 23 July 2017  01:35 UTC
Temperature: 26.0°C (79°F)
Dewpoint: 25.0°C (77°F) [RH = 94%]
Pressure (altimeter): 30.05 inches Hg (1017.7 mb)
Winds: calm
Visibility: 7 miles (11 km)
Ceiling: at least 12,000 feet AGL
Clouds: sky clear below 12,000 feet AGL
Present Weather: automated observation with no human augmentation;
there may or may not be significant weather present at this time
KVDF 230135Z AUTO 00000KT 7SM CLR 26/25 A3005 RMK AO2

Conditions at: KVDF observed 23 July 2017  01:15 UTC
Temperature: 27.0°C (81°F)
Dewpoint: 25.0°C (77°F) [RH = 89%]
Pressure (altimeter): 30.05 inches Hg (1017.7 mb)
Winds: calm
Visibility: 10 or more miles (16+ km)
Ceiling: at least 12,000 feet AGL
Clouds: sky clear below 12,000 feet AGL
Present Weather: automated observation with no human augmentation;
there may or may not be significant weather present at this time
KVDF 230115Z AUTO 00000KT 10SM CLR 27/25 A3005 RMK AO2

Conditions at: KVDF observed 23 July 2017  00:55 UTC
Temperature: 27.0°C (81°F)
Dewpoint: 25.0°C (77°F) [RH = 89%]
Pressure (altimeter): 30.05 inches Hg (1017.7 mb)
Winds: calm
Visibility: 10 or more miles (16+ km)
Ceiling: at least 12,000 feet AGL
Clouds: sky clear below 12,000 feet AGL
Present Weather: automated observation with no human augmentation;
there may or may not be significant weather present at this time
KVDF 230055Z AUTO 00000KT 10SM CLR 27/25 A3005 RMK AO2

Conditions at: KVDF observed 23 July 2017  00:35 UTC
Temperature: 27.0°C (81°F)
Dewpoint: 25.0°C (77°F) [RH = 89%]
Pressure (altimeter): 30.06 inches Hg (1018.0 mb)
Winds: calm
Visibility: 10 or more miles (16+ km)
Ceiling: at least 12,000 feet AGL
Clouds: sky clear below 12,000 feet AGL
Present Weather: automated observation with no human augmentation;
there may or may not be significant weather present at this time
KVDF 230035Z AUTO 00000KT 10SM CLR 27/25 A3006 RMK AO2

Conditions at: KVDF observed 23 July 2017  00:15 UTC
Temperature: 28.0°C (82°F)
Dewpoint: 25.0°C (77°F) [RH = 84%]
Pressure (altimeter): 30.06 inches Hg (1018.0 mb)
Winds: from the SE (140 degrees) at 3 MPH (3 knots; 1.6 m/s)
Visibility: 10 or more miles (16+ km)
Ceiling: at least 12,000 feet AGL
Clouds: sky clear below 12,000 feet AGL
Present Weather: automated observation with no human augmentation;
there may or may not be significant weather present at this time
KVDF 230015Z AUTO 14003KT 10SM CLR 28/25 A3006 RMK AO2

Conditions at: KVDF observed 22 July 2017  23:55 UTC
Temperature: 28.0°C (82°F)
Dewpoint: 25.0°C (77°F) [RH = 84%]
Pressure (altimeter): 30.06 inches Hg (1018.0 mb)
Winds: calm
Visibility: 10 or more miles (16+ km)
Ceiling: at least 12,000 feet AGL
Clouds: sky clear below 12,000 feet AGL
Present Weather: automated observation with no human augmentation;
there may or may not be significant weather present at this time
KVDF 222355Z AUTO 00000KT 10SM CLR 28/25 A3006 RMK AO2

Conditions at: KVDF observed 22 July 2017  23:35 UTC
Temperature: 28.0°C (82°F)
Dewpoint: 25.0°C (77°F) [RH = 84%]
Pressure (altimeter): 30.06 inches Hg (1018.0 mb)
Winds: from the SE (130 degrees) at 5 MPH (4 knots; 2.1 m/s)
Visibility: 10 or more miles (16+ km)
Ceiling: at least 12,000 feet AGL
Clouds: sky clear below 12,000 feet AGL
Present Weather: automated observation with no human augmentation;
there may or may not be significant weather present at this time
KVDF 222335Z AUTO 13004KT 10SM CLR 28/25 A3006 RMK AO2

Conditions at: KVDF observed 22 July 2017  23:15 UTC
Temperature: 28.0°C (82°F)
Dewpoint: 25.0°C (77°F) [RH = 84%]
Pressure (altimeter): 30.06 inches Hg (1018.0 mb)
Winds: from the SE (130 degrees) at 5 MPH (4 knots; 2.1 m/s)
Visibility: 10 or more miles (16+ km)
Ceiling: at least 12,000 feet AGL
Clouds: sky clear below 12,000 feet AGL
Present Weather: automated observation with no human augmentation;
there may or may not be significant weather present at this time
KVDF 222315Z AUTO 13004KT 10SM CLR 28/25 A3006 RMK AO2

Conditions at: KVDF observed 22 July 2017  22:55 UTC
Temperature: 29.0°C (84°F)
Dewpoint: 25.0°C (77°F) [RH = 79%]
Pressure (altimeter): 30.06 inches Hg (1018.0 mb)
Winds: from the E (90 degrees) at 5 MPH (4 knots; 2.1 m/s)
Visibility: 10 or more miles (16+ km)
Ceiling: at least 12,000 feet AGL
Clouds: scattered clouds at 900 feet AGL
Present Weather: automated observation with no human augmentation;
there may or may not be significant weather present at this time
KVDF 222255Z AUTO 09004KT 10SM SCT009 29/25 A3006 RMK AO2

Conditions at: KVDF observed 22 July 2017  22:35 UTC
Temperature: 29.0°C (84°F)
Dewpoint: 25.0°C (77°F) [RH = 79%]
Pressure (altimeter): 30.06 inches Hg (1018.0 mb)
Winds: from the ENE (60 degrees) at 5 MPH (4 knots; 2.1 m/s)
Visibility: 10 or more miles (16+ km)
Ceiling: at least 12,000 feet AGL
Clouds: sky clear below 12,000 feet AGL
Present Weather: automated observation with no human augmentation;
there may or may not be significant weather present at this time
KVDF 222235Z AUTO 06004KT 10SM CLR 29/25 A3006 RMK AO2

Conditions at: KVDF observed 22 July 2017  22:15 UTC
Temperature: 29.0°C (84°F)
Dewpoint: 25.0°C (77°F) [RH = 79%]
Pressure (altimeter): 30.06 inches Hg (1018.0 mb)
Winds: calm
Visibility: 10 or more miles (16+ km)
Ceiling: at least 12,000 feet AGL
Clouds: sky clear below 12,000 feet AGL
Present Weather: automated observation with no human augmentation;
there may or may not be significant weather present at this time
KVDF 222215Z AUTO 00000KT 10SM CLR 29/25 A3006 RMK AO2

Conditions at: KVDF observed 22 July 2017  21:55 UTC
Temperature: 29.0°C (84°F)
Dewpoint: 25.0°C (77°F) [RH = 79%]
Pressure (altimeter): 30.06 inches Hg (1018.0 mb)
Winds: calm
Visibility: 10 or more miles (16+ km)
Ceiling: at least 12,000 feet AGL
Clouds: sky clear below 12,000 feet AGL
Present Weather: automated observation with no human augmentation;
there may or may not be significant weather present at this time
KVDF 222155Z AUTO 00000KT 10SM CLR 29/25 A3006 RMK AO2

Conditions at: KVDF observed 22 July 2017  21:35 UTC
Temperature: 30.0°C (86°F)
Dewpoint: 24.0°C (75°F) [RH = 70%]
Pressure (altimeter): 30.06 inches Hg (1018.0 mb)
Winds: calm
Visibility: 10 or more miles (16+ km)
Ceiling: at least 12,000 feet AGL
Clouds: scattered clouds at 2500 feet AGL
scattered clouds at 3000 feet AGL
Present Weather: automated observation with no human augmentation;
there may or may not be significant weather present at this time
KVDF 222135Z AUTO 00000KT 10SM SCT025 SCT030 30/24 A3006 RMK AO2

Conditions at: KVDF observed 22 July 2017  21:15 UTC
Temperature: 29.0°C (84°F)
Dewpoint: 24.0°C (75°F) [RH = 74%]
Pressure (altimeter): 30.06 inches Hg (1018.0 mb)
Winds: calm
Visibility: 10 or more miles (16+ km)
Ceiling: 2800 feet AGL
Clouds: scattered clouds at 2300 feet AGL
broken clouds at 2800 feet AGL
Present Weather: automated observation with no human augmentation;
there may or may not be significant weather present at this time
KVDF 222115Z AUTO 00000KT 10SM SCT023 BKN028 29/24 A3006 RMK AO2

Conditions at: KVDF observed 22 July 2017  20:55 UTC
Temperature: 30.0°C (86°F)
Dewpoint: 23.0°C (73°F) [RH = 66%]
Pressure (altimeter): 30.06 inches Hg (1018.0 mb)
Winds: calm
Visibility: 10 or more miles (16+ km)
Ceiling: at least 12,000 feet AGL
Clouds: scattered clouds at 1900 feet AGL
Present Weather: automated observation with no human augmentation;
there may or may not be significant weather present at this time
KVDF 222055Z AUTO 00000KT 10SM SCT019 30/23 A3006 RMK AO2

Conditions at: KVDF observed 22 July 2017  20:35 UTC
Temperature: 30.0°C (86°F)
Dewpoint: 25.0°C (77°F) [RH = 75%]
Pressure (altimeter): 30.05 inches Hg (1017.7 mb)
Winds: calm
Visibility: 10 or more miles (16+ km)
Ceiling: at least 12,000 feet AGL
Clouds: scattered clouds at 1300 feet AGL
Present Weather: automated observation with no human augmentation;
there may or may not be significant weather present at this time
KVDF 222035Z AUTO 00000KT 10SM SCT013 30/25 A3005 RMK AO2

Conditions at: KVDF observed 22 July 2017  20:15 UTC
Temperature: 30.0°C (86°F)
Dewpoint: 25.0°C (77°F) [RH = 75%]
Pressure (altimeter): 30.06 inches Hg (1018.0 mb)
Winds: calm
Visibility: 10 or more miles (16+ km)
Ceiling: at least 12,000 feet AGL
Clouds: sky clear below 12,000 feet AGL
Present Weather: automated observation with no human augmentation;
there may or may not be significant weather present at this time
KVDF 222015Z AUTO 00000KT 10SM CLR 30/25 A3006 RMK AO2

Conditions at: KVDF observed 22 July 2017  19:55 UTC
Temperature: 29.0°C (84°F)
Dewpoint: 25.0°C (77°F) [RH = 79%]
Pressure (altimeter): 30.06 inches Hg (1018.0 mb)
Winds: calm
Visibility: 10 or more miles (16+ km)
Ceiling: at least 12,000 feet AGL
Clouds: sky clear below 12,000 feet AGL
Present Weather: automated observation with no human augmentation;
there may or may not be significant weather present at this time
KVDF 221955Z AUTO 00000KT 10SM CLR 29/25 A3006 RMK AO2

Conditions at: KVDF observed 22 July 2017  19:35 UTC
Temperature: 29.0°C (84°F)
Dewpoint: 24.0°C (75°F) [RH = 74%]
Pressure (altimeter): 30.07 inches Hg (1018.4 mb)
Winds: calm
Visibility: 10 or more miles (16+ km)
Ceiling: at least 12,000 feet AGL
Clouds: scattered clouds at 2000 feet AGL
Present Weather: automated observation with no human augmentation;
there may or may not be significant weather present at this time
KVDF 221935Z AUTO 00000KT 10SM SCT020 29/24 A3007 RMK AO2

Conditions at: KVDF observed 22 July 2017  19:15 UTC
Temperature: 29.0°C (84°F)
Dewpoint: 25.0°C (77°F) [RH = 79%]
Pressure (altimeter): 30.07 inches Hg (1018.4 mb)
Winds: calm
Visibility: 10 or more miles (16+ km)
Ceiling: 2500 feet AGL
Clouds: scattered clouds at 2000 feet AGL
broken clouds at 2500 feet AGL
Present Weather: -RA  (light rain)
KVDF 221915Z AUTO 00000KT 10SM -RA SCT020 BKN025 29/25 A3007 RMK AO2

Conditions at: KVDF observed 22 July 2017  18:55 UTC
Temperature: 30.0°C (86°F)
Dewpoint: 25.0°C (77°F) [RH = 75%]
Pressure (altimeter): 30.07 inches Hg (1018.4 mb)
Winds: from the NW (310 degrees) at 5 MPH (4 knots; 2.1 m/s)
Visibility: 10 or more miles (16+ km)
Ceiling: 2700 feet AGL
Clouds: broken clouds at 2700 feet AGL
Present Weather: automated observation with no human augmentation;
there may or may not be significant weather present at this time
KVDF 221855Z AUTO 31004KT 10SM BKN027 30/25 A3007 RMK AO2

Conditions at: KVDF observed 22 July 2017  18:35 UTC
Temperature: 30.0°C (86°F)
Dewpoint: 24.0°C (75°F) [RH = 70%]
Pressure (altimeter): 30.09 inches Hg (1019.0 mb)
Winds: from the S (180 degrees) at 3 MPH (3 knots; 1.6 m/s)
Visibility: 10 or more miles (16+ km)
Ceiling: at least 12,000 feet AGL
Clouds: sky clear below 12,000 feet AGL
Present Weather: automated observation with no human augmentation;
there may or may not be significant weather present at this time
KVDF 221835Z AUTO 18003KT 10SM CLR 30/24 A3009 RMK AO2

Conditions at: KVDF observed 22 July 2017  18:15 UTC
Temperature: 29.0°C (84°F)
Dewpoint: 24.0°C (75°F) [RH = 74%]
Pressure (altimeter): 30.09 inches Hg (1019.0 mb)
Winds: calm
Visibility: 10 or more miles (16+ km)
Ceiling: at least 12,000 feet AGL
Clouds: sky clear below 12,000 feet AGL
Present Weather: automated observation with no human augmentation;
there may or may not be significant weather present at this time
KVDF 221815Z AUTO 00000KT 10SM CLR 29/24 A3009 RMK AO2

Conditions at: KVDF observed 22 July 2017  17:55 UTC
Temperature: 29.0°C (84°F)
Dewpoint: 24.0°C (75°F) [RH = 74%]
Pressure (altimeter): 30.10 inches Hg (1019.4 mb)
Winds: from the SSE (150 degrees) at 3 MPH (3 knots; 1.6 m/s)
Visibility: 10 or more miles (16+ km)
Ceiling: at least 12,000 feet AGL
Clouds: sky clear below 12,000 feet AGL
Present Weather: automated observation with no human augmentation;
there may or may not be significant weather present at this time
KVDF 221755Z AUTO 15003KT 10SM CLR 29/24 A3010 RMK AO2

Conditions at: KVDF observed 22 July 2017  17:35 UTC
Temperature: 28.0°C (82°F)
Dewpoint: 24.0°C (75°F) [RH = 79%]
Pressure (altimeter): 30.10 inches Hg (1019.4 mb)
Winds: calm
Visibility: 10 or more miles (16+ km)
Ceiling: at least 12,000 feet AGL
Clouds: sky clear below 12,000 feet AGL
Present Weather: automated observation with no human augmentation;
there may or may not be significant weather present at this time
KVDF 221735Z AUTO 00000KT 10SM CLR 28/24 A3010 RMK AO2

Conditions at: KVDF observed 22 July 2017  17:15 UTC
Temperature: 28.0°C (82°F)
Dewpoint: 23.0°C (73°F) [RH = 74%]
Pressure (altimeter): 30.11 inches Hg (1019.7 mb)
Winds: calm
Visibility: 10 or more miles (16+ km)
Ceiling: at least 12,000 feet AGL
Clouds: sky clear below 12,000 feet AGL
Present Weather: automated observation with no human augmentation;
there may or may not be significant weather present at this time
KVDF 221715Z AUTO 00000KT 10SM CLR 28/23 A3011 RMK AO2

Conditions at: KVDF observed 22 July 2017  16:55 UTC
Temperature: 28.0°C (82°F)
Dewpoint: 24.0°C (75°F) [RH = 79%]
Pressure (altimeter): 30.10 inches Hg (1019.4 mb)
Winds: from the S (190 degrees) at 3 MPH (3 knots; 1.6 m/s)
Visibility: 10 or more miles (16+ km)
Ceiling: at least 12,000 feet AGL
Clouds: sky clear below 12,000 feet AGL
Present Weather: automated observation with no human augmentation;
there may or may not be significant weather present at this time
KVDF 221655Z AUTO 19003KT 10SM CLR 28/24 A3010 RMK AO2

Conditions at: KVDF observed 22 July 2017  16:35 UTC
Temperature: 28.0°C (82°F)
Dewpoint: 24.0°C (75°F) [RH = 79%]
Pressure (altimeter): 30.10 inches Hg (1019.4 mb)
Winds: calm
Visibility: 10 or more miles (16+ km)
Ceiling: at least 12,000 feet AGL
Clouds: sky clear below 12,000 feet AGL
Present Weather: automated observation with no human augmentation;
there may or may not be significant weather present at this time
KVDF 221635Z AUTO 00000KT 10SM CLR 28/24 A3010 RMK AO2

Conditions at: KVDF observed 22 July 2017  16:15 UTC
Temperature: 28.0°C (82°F)
Dewpoint: 24.0°C (75°F) [RH = 79%]
Pressure (altimeter): 30.10 inches Hg (1019.4 mb)
Winds: from the SW (220 degrees) at 3 MPH (3 knots; 1.6 m/s)
Visibility: 10 or more miles (16+ km)
Ceiling: at least 12,000 feet AGL
Clouds: sky clear below 12,000 feet AGL
Present Weather: automated observation with no human augmentation;
there may or may not be significant weather present at this time
KVDF 221615Z AUTO 22003KT 10SM CLR 28/24 A3010 RMK AO2

Conditions at: KVDF observed 22 July 2017  15:55 UTC
Temperature: 27.0°C (81°F)
Dewpoint: 24.0°C (75°F) [RH = 84%]
Pressure (altimeter): 30.11 inches Hg (1019.7 mb)
Winds: from the SSW (200 degrees) at 5 MPH (4 knots; 2.1 m/s)
Visibility: 10 or more miles (16+ km)
Ceiling: at least 12,000 feet AGL
Clouds: sky clear below 12,000 feet AGL
Present Weather: automated observation with no human augmentation;
there may or may not be significant weather present at this time
KVDF 221555Z AUTO 20004KT 10SM CLR 27/24 A3011 RMK AO2

Conditions at: KVDF observed 22 July 2017  15:35 UTC
Temperature: 28.0°C (82°F)
Dewpoint: 24.0°C (75°F) [RH = 79%]
Pressure (altimeter): 30.12 inches Hg (1020.1 mb)
Winds: from the S (170 degrees) at 6 MPH (5 knots; 2.6 m/s)
Visibility: 10 or more miles (16+ km)
Ceiling: at least 12,000 feet AGL
Clouds: sky clear below 12,000 feet AGL
Present Weather: automated observation with no human augmentation;
there may or may not be significant weather present at this time
KVDF 221535Z AUTO 17005KT 10SM CLR 28/24 A3012 RMK AO2

Conditions at: KVDF observed 22 July 2017  15:15 UTC
Temperature: 28.0°C (82°F)
Dewpoint: 24.0°C (75°F) [RH = 79%]
Pressure (altimeter): 30.11 inches Hg (1019.7 mb)
Winds: from the SSE (150 degrees) at 3 MPH (3 knots; 1.6 m/s)
Visibility: 10 or more miles (16+ km)
Ceiling: at least 12,000 feet AGL
Clouds: sky clear below 12,000 feet AGL
Present Weather: automated observation with no human augmentation;
there may or may not be significant weather present at this time
KVDF 221515Z AUTO 15003KT 10SM CLR 28/24 A3011 RMK AO2

Conditions at: KVDF observed 22 July 2017  14:55 UTC
Temperature: 30.0°C (86°F)
Dewpoint: 24.0°C (75°F) [RH = 70%]
Pressure (altimeter): 30.10 inches Hg (1019.4 mb)
Winds: from the SSW (200 degrees) at 7 MPH (6 knots; 3.1 m/s)
Visibility: 10 or more miles (16+ km)
Ceiling: at least 12,000 feet AGL
Clouds: scattered clouds at 5500 feet AGL
scattered clouds at 7000 feet AGL
Present Weather: automated observation with no human augmentation;
there may or may not be significant weather present at this time
KVDF 221455Z AUTO 20006KT 10SM SCT055 SCT070 30/24 A3010 RMK AO2

Conditions at: KVDF observed 22 July 2017  14:35 UTC
Temperature: 28.0°C (82°F)
Dewpoint: 23.0°C (73°F) [RH = 74%]
Pressure (altimeter): 30.11 inches Hg (1019.7 mb)
Winds: from the SW (230 degrees) at 5 MPH (4 knots; 2.1 m/s)
Visibility: 10 or more miles (16+ km)
Ceiling: 5500 feet AGL
Clouds: scattered clouds at 1700 feet AGL
scattered clouds at 2700 feet AGL
overcast cloud deck at 5500 feet AGL
Present Weather: -RA  (light rain)
KVDF 221435Z AUTO 23004KT 10SM -RA SCT017 SCT027 OVC055 28/23 A3011 RMK AO2

Conditions at: KVDF observed 22 July 2017  14:15 UTC
Temperature: 30.0°C (86°F)
Dewpoint: 24.0°C (75°F) [RH = 70%]
Pressure (altimeter): 30.11 inches Hg (1019.7 mb)
Winds: from the SSW (210 degrees) at 10 MPH (9 knots; 4.7 m/s)
Visibility: 10 or more miles (16+ km)
Ceiling: 2400 feet AGL
Clouds: scattered clouds at 1700 feet AGL
broken clouds at 2400 feet AGL
broken clouds at 3000 feet AGL
Present Weather: automated observation with no human augmentation;
there may or may not be significant weather present at this time
KVDF 221415Z AUTO 21009KT 10SM SCT017 BKN024 BKN030 30/24 A3011 RMK AO2

Conditions at: KVDF observed 22 July 2017  13:55 UTC
Temperature: 31.0°C (88°F)
Dewpoint: 25.0°C (77°F) [RH = 71%]
Pressure (altimeter): 30.11 inches Hg (1019.7 mb)
Winds: from the SSW (200 degrees) at 6 MPH (5 knots; 2.6 m/s)
Visibility: 10 or more miles (16+ km)
Ceiling: at least 12,000 feet AGL
Clouds: scattered clouds at 1500 feet AGL
scattered clouds at 2600 feet AGL
Present Weather: automated observation with no human augmentation;
there may or may not be significant weather present at this time
KVDF 221355Z AUTO 20005KT 10SM SCT015 SCT026 31/25 A3011 RMK AO2

Conditions at: KVDF observed 22 July 2017  13:35 UTC
Temperature: 30.0°C (86°F)
Dewpoint: 25.0°C (77°F) [RH = 75%]
Pressure (altimeter): 30.11 inches Hg (1019.7 mb)
Winds: calm
Visibility: 10 or more miles (16+ km)
Ceiling: at least 12,000 feet AGL
Clouds: scattered clouds at 10000 feet AGL
Present Weather: automated observation with no human augmentation;
there may or may not be significant weather present at this time
KVDF 221335Z AUTO 00000KT 10SM SCT100 30/25 A3011 RMK AO2

Conditions at: KVDF observed 22 July 2017  13:15 UTC
Temperature: 29.0°C (84°F)
Dewpoint: 25.0°C (77°F) [RH = 79%]
Pressure (altimeter): 30.11 inches Hg (1019.7 mb)
Winds: calm
Visibility: 10 or more miles (16+ km)
Ceiling: at least 12,000 feet AGL
Clouds: scattered clouds at 10000 feet AGL
Present Weather: automated observation with no human augmentation;
there may or may not be significant weather present at this time
KVDF 221315Z AUTO 00000KT 10SM SCT100 29/25 A3011 RMK AO2

Conditions at: KVDF observed 22 July 2017  12:55 UTC
Temperature: 28.0°C (82°F)
Dewpoint: 25.0°C (77°F) [RH = 84%]
Pressure (altimeter): 30.09 inches Hg (1019.0 mb)
Winds: calm
Visibility: 10 or more miles (16+ km)
Ceiling: at least 12,000 feet AGL
Clouds: sky clear below 12,000 feet AGL
Present Weather: automated observation with no human augmentation;
there may or may not be significant weather present at this time
KVDF 221255Z AUTO 00000KT 10SM CLR 28/25 A3009 RMK AO2

Conditions at: KVDF observed 22 July 2017  12:35 UTC
Temperature: 27.0°C (81°F)
Dewpoint: 25.0°C (77°F) [RH = 89%]
Pressure (altimeter): 30.09 inches Hg (1019.0 mb)
Winds: calm
Visibility: 10 or more miles (16+ km)
Ceiling: at least 12,000 feet AGL
Clouds: scattered clouds at 11000 feet AGL
Present Weather: automated observation with no human augmentation;
there may or may not be significant weather present at this time
KVDF 221235Z AUTO 00000KT 10SM SCT110 27/25 A3009 RMK AO2

Conditions at: KVDF observed 22 July 2017  12:15 UTC
Temperature: 26.0°C (79°F)
Dewpoint: 24.0°C (75°F) [RH = 89%]
Pressure (altimeter): 30.09 inches Hg (1019.0 mb)
Winds: calm
Visibility: 10 or more miles (16+ km)
Ceiling: at least 12,000 feet AGL
Clouds: sky clear below 12,000 feet AGL
Present Weather: automated observation with no human augmentation;
there may or may not be significant weather present at this time
KVDF 221215Z AUTO 00000KT 10SM CLR 26/24 A3009 RMK AO2

Conditions at: KVDF observed 22 July 2017  11:55 UTC
Temperature: 25.0°C (77°F)
Dewpoint: 24.0°C (75°F) [RH = 94%]
Pressure (altimeter): 30.08 inches Hg (1018.7 mb)
Winds: calm
Visibility: 7 miles (11 km)
Ceiling: at least 12,000 feet AGL
Clouds: scattered clouds at 7000 feet AGL
Present Weather: automated observation with no human augmentation;
there may or may not be significant weather present at this time
KVDF 221155Z AUTO 00000KT 7SM SCT070 25/24 A3008 RMK AO2

Conditions at: KVDF observed 22 July 2017  11:35 UTC
Temperature: 25.0°C (77°F)
Dewpoint: 23.0°C (73°F) [RH = 89%]
Pressure (altimeter): 30.08 inches Hg (1018.7 mb)
Winds: calm
Visibility: 7 miles (11 km)
Ceiling: at least 12,000 feet AGL
Clouds: scattered clouds at 7000 feet AGL
Present Weather: automated observation with no human augmentation;
there may or may not be significant weather present at this time
KVDF 221135Z AUTO 00000KT 7SM SCT070 25/23 A3008 RMK AO2

Conditions at: KVDF observed 22 July 2017  11:15 UTC
Temperature: 24.0°C (75°F)
Dewpoint: 23.0°C (73°F) [RH = 94%]
Pressure (altimeter): 30.07 inches Hg (1018.4 mb)
Winds: calm
Visibility: 7 miles (11 km)
Ceiling: 7000 feet AGL
Clouds: broken clouds at 7000 feet AGL
Present Weather: automated observation with no human augmentation;
there may or may not be significant weather present at this time
KVDF 221115Z AUTO 00000KT 7SM BKN070 24/23 A3007 RMK AO2

Conditions at: KVDF observed 22 July 2017  10:55 UTC
Temperature: 24.0°C (75°F)
Dewpoint: 22.0°C (72°F) [RH = 89%]
Pressure (altimeter): 30.06 inches Hg (1018.0 mb)
Winds: calm
Visibility: 5 miles (8 km)
Ceiling: at least 12,000 feet AGL
Clouds: sky clear below 12,000 feet AGL
Present Weather: BR  (mist)
KVDF 221055Z AUTO 00000KT 5SM BR CLR 24/22 A3006 RMK AO2

Conditions at: KVDF observed 22 July 2017  10:35 UTC
Temperature: 24.0°C (75°F)
Dewpoint: 22.0°C (72°F) [RH = 89%]
Pressure (altimeter): 30.05 inches Hg (1017.7 mb)
Winds: calm
Visibility: 4 miles (6 km)
Ceiling: at least 12,000 feet AGL
Clouds: scattered clouds at 6500 feet AGL
Present Weather: BR  (mist)
KVDF 221035Z AUTO 00000KT 4SM BR SCT065 24/22 A3005 RMK AO2

Conditions at: KVDF observed 22 July 2017  10:15 UTC
Temperature: 23.0°C (73°F)
Dewpoint: 22.0°C (72°F) [RH = 94%]
Pressure (altimeter): 30.05 inches Hg (1017.7 mb)
Winds: calm
Visibility: 2.50 miles (4.02 km)
Ceiling: at least 12,000 feet AGL
Clouds: sky clear below 12,000 feet AGL
Present Weather: BR  (mist)
KVDF 221015Z AUTO 00000KT 2 1/2SM BR CLR 23/22 A3005 RMK AO2

Conditions at: KVDF observed 22 July 2017  09:55 UTC
Temperature: 23.0°C (73°F)
Dewpoint: 22.0°C (72°F) [RH = 94%]
Pressure (altimeter): 30.04 inches Hg (1017.4 mb)
Winds: calm
Visibility: 4 miles (6 km)
Ceiling: at least 12,000 feet AGL
Clouds: sky clear below 12,000 feet AGL
Present Weather: BR  (mist)
KVDF 220955Z AUTO 00000KT 4SM BR CLR 23/22 A3004 RMK AO2

Conditions at: KVDF observed 22 July 2017  09:35 UTC
Temperature: 23.0°C (73°F)
Dewpoint: 22.0°C (72°F) [RH = 94%]
Pressure (altimeter): 30.04 inches Hg (1017.4 mb)
Winds: calm
Visibility: 2.50 miles (4.02 km)
Ceiling: at least 12,000 feet AGL
Clouds: sky clear below 12,000 feet AGL
Present Weather: BR  (mist)
KVDF 220935Z AUTO 00000KT 2 1/2SM BR CLR 23/22 A3004 RMK AO2 VIS 3/4V5

Conditions at: KVDF observed 22 July 2017  09:15 UTC
Temperature: 23.0°C (73°F)
Dewpoint: 22.0°C (72°F) [RH = 94%]
Pressure (altimeter): 30.04 inches Hg (1017.4 mb)
Winds: calm
Visibility: 5 miles (8 km)
Ceiling: at least 12,000 feet AGL
Clouds: sky clear below 12,000 feet AGL
Present Weather: BR  (mist)
KVDF 220915Z AUTO 00000KT 5SM BR CLR 23/22 A3004 RMK AO2

Conditions at: KVDF observed 22 July 2017  08:55 UTC
Temperature: 23.0°C (73°F)
Dewpoint: 22.0°C (72°F) [RH = 94%]
Pressure (altimeter): 30.03 inches Hg (1017.0 mb)
Winds: calm
Visibility: 7 miles (11 km)
Ceiling: at least 12,000 feet AGL
Clouds: sky clear below 12,000 feet AGL
Present Weather: automated observation with no human augmentation;
there may or may not be significant weather present at this time
KVDF 220855Z AUTO 00000KT 7SM CLR 23/22 A3003 RMK AO2